PWSweather.com
Personal Weather Stations
Station Observations
KMOHERMA2
Stony Hill, Hermann, MO 65041

Stony HillHermann, MO 65041

Lat: 38.527, Lon: -91.414

Elevation: 896

Station Type: Davis Vantage Pro 2

Latest ConditionsUpdated 2:55:14 PM CST Sunday, Jan 19, 2020
Currently Today's Max Today's Min Today's Average
Temperature 18.4°F-7.6°C 18.4°F-7.6°C 10.2°F-12.1°C 15.2°F-9.3°C
Dew Point 6.4°F-14.2°C 6.8°F-14.0°C -0.9°F-18.3°C 3.6°F-15.8°C
Winds Calm Calm Calm -Calm - - Calm Calm
Wind Gusts -- -- - -
Humidity 59% 62% 58% 60%
Pressure 30.53 in1033.9 mb 30.54 in1034.2 mb 30.51 in1033.2 mb -
Hour Temp Dew Point Humidity Winds Wind Gusts Pressure Precip Precip Rate Daily Precip Total
02:55 PM 18.4°F-7.6°C 6.4°F-14.2°C 59% Calm Calm -- 30.53 in1033.9 mb 0.00 in0.0 mm 0.00 in0.0 mm 1.58 in40.1 mm
02:50 PM 18.0°F-7.8°C 6.4°F-14.2°C 60% Calm Calm -- 30.53 in1033.9 mb 0.00 in0.0 mm 0.00 in0.0 mm 1.58 in40.1 mm
02:45 PM 17.9°F-7.8°C 6.1°F-14.4°C 59% Calm Calm -- 30.53 in1033.9 mb 0.00 in0.0 mm 0.00 in0.0 mm 1.58 in40.1 mm
02:40 PM 17.9°F-7.8°C 6.1°F-14.4°C 59% Calm Calm -- 30.53 in1033.9 mb 0.00 in0.0 mm 0.00 in0.0 mm 1.58 in40.1 mm
02:35 PM 18.2°F-7.7°C 6.3°F-14.3°C 59% Calm Calm -- 30.53 in1033.9 mb 0.00 in0.0 mm 0.00 in0.0 mm 1.58 in40.1 mm
02:30 PM 18.3°F-7.6°C 6.8°F-14.0°C 60% Calm Calm -- 30.53 in1033.9 mb 0.00 in0.0 mm 0.00 in0.0 mm 1.58 in40.1 mm
02:25 PM 17.9°F-7.8°C 5.7°F-14.6°C 58% Calm Calm -- 30.53 in1033.9 mb 0.00 in0.0 mm 0.00 in0.0 mm 1.58 in40.1 mm
02:20 PM 18.0°F-7.8°C 6.1°F-14.4°C 59% Calm Calm -- 30.53 in1033.9 mb 0.00 in0.0 mm 0.00 in0.0 mm 1.58 in40.1 mm
02:15 PM 18.0°F-7.8°C 5.7°F-14.6°C 58% Calm Calm -- 30.52 in1033.5 mb 0.00 in0.0 mm 0.00 in0.0 mm 1.58 in40.1 mm
02:10 PM 18.3°F-7.6°C 6.4°F-14.2°C 59% Calm Calm -- 30.52 in1033.5 mb 0.00 in0.0 mm 0.00 in0.0 mm 1.58 in40.1 mm
02:05 PM 17.8°F-7.9°C 6.3°F-14.3°C 60% Calm Calm -- 30.52 in1033.5 mb 0.00 in0.0 mm 0.00 in0.0 mm 1.58 in40.1 mm
02:00 PM 17.6°F-8.0°C 5.4°F-14.8°C 58% Calm Calm -- 30.52 in1033.5 mb 0.00 in0.0 mm 0.00 in0.0 mm 1.58 in40.1 mm
01:55 PM 17.8°F-7.9°C 5.5°F-14.7°C 58% Calm Calm -- 30.52 in1033.5 mb 0.00 in0.0 mm 0.00 in0.0 mm 1.58 in40.1 mm
01:50 PM 17.5°F-8.1°C 5.2°F-14.9°C 58% Calm Calm -- 30.51 in1033.2 mb 0.00 in0.0 mm 0.00 in0.0 mm 1.58 in40.1 mm
01:45 PM 17.2°F-8.2°C 5.4°F-14.8°C 59% Calm Calm -- 30.52 in1033.5 mb 0.00 in0.0 mm 0.00 in0.0 mm 1.58 in40.1 mm
01:40 PM 17.6°F-8.0°C 5.4°F-14.8°C 58% Calm Calm -- 30.52 in1033.5 mb 0.00 in0.0 mm 0.00 in0.0 mm 1.58 in40.1 mm
01:35 PM 17.9°F-7.8°C 5.7°F-14.6°C 58% Calm Calm -- 30.52 in1033.5 mb 0.00 in0.0 mm 0.00 in0.0 mm 1.58 in40.1 mm
01:30 PM 17.8°F-7.9°C 5.9°F-14.5°C 59% Calm Calm -- 30.52 in1033.5 mb 0.00 in0.0 mm 0.00 in0.0 mm 1.58 in40.1 mm
01:25 PM 17.6°F-8.0°C 5.7°F-14.6°C 59% Calm Calm -- 30.52 in1033.5 mb 0.00 in0.0 mm 0.00 in0.0 mm 1.58 in40.1 mm
01:20 PM 17.2°F-8.2°C 5.7°F-14.6°C 60% Calm Calm -- 30.52 in1033.5 mb 0.00 in0.0 mm 0.00 in0.0 mm 1.58 in40.1 mm
01:15 PM 16.9°F-8.4°C 4.6°F-15.2°C 58% Calm Calm -- 30.52 in1033.5 mb 0.00 in0.0 mm 0.00 in0.0 mm 1.58 in40.1 mm
01:10 PM 16.7°F-8.5°C 4.5°F-15.3°C 58% Calm Calm -- 30.52 in1033.5 mb 0.00 in0.0 mm 0.00 in0.0 mm 1.58 in40.1 mm
01:05 PM 17.3°F-8.2°C 5.0°F-15.0°C 58% Calm Calm -- 30.52 in1033.5 mb 0.00 in0.0 mm 0.00 in0.0 mm 1.58 in40.1 mm
01:00 PM 17.0°F-8.3°C 4.8°F-15.1°C 58% Calm Calm -- 30.52 in1033.5 mb 0.00 in0.0 mm 0.00 in0.0 mm 1.58 in40.1 mm
12:55 PM 16.7°F-8.5°C 5.2°F-14.9°C 60% Calm Calm -- 30.52 in1033.5 mb 0.00 in0.0 mm 0.00 in0.0 mm 1.58 in40.1 mm
12:50 PM 16.0°F-8.9°C 3.9°F-15.6°C 58% Calm Calm -- 30.52 in1033.5 mb 0.00 in0.0 mm 0.00 in0.0 mm 1.58 in40.1 mm
12:45 PM 16.7°F-8.5°C 4.8°F-15.1°C 59% Calm Calm -- 30.52 in1033.5 mb 0.00 in0.0 mm 0.00 in0.0 mm 1.58 in40.1 mm
12:40 PM 17.2°F-8.2°C 5.4°F-14.8°C 59% Calm Calm -- 30.52 in1033.5 mb 0.00 in0.0 mm 0.00 in0.0 mm 1.58 in40.1 mm
12:35 PM 16.6°F-8.6°C 4.3°F-15.4°C 58% Calm Calm -- 30.52 in1033.5 mb 0.00 in0.0 mm 0.00 in0.0 mm 1.58 in40.1 mm
12:30 PM 16.2°F-8.8°C 4.8°F-15.1°C 60% Calm Calm -- 30.52 in1033.5 mb 0.00 in0.0 mm 0.00 in0.0 mm 1.58 in40.1 mm
12:25 PM 16.6°F-8.6°C 5.0°F-15.0°C 60% Calm Calm -- 30.52 in1033.5 mb 0.00 in0.0 mm 0.00 in0.0 mm 1.58 in40.1 mm
12:20 PM 15.3°F-9.3°C 4.3°F-15.4°C 61% Calm Calm -- 30.52 in1033.5 mb 0.00 in0.0 mm 0.00 in0.0 mm 1.58 in40.1 mm
12:15 PM 15.2°F-9.3°C 3.9°F-15.6°C 60% Calm Calm -- 30.52 in1033.5 mb 0.00 in0.0 mm 0.00 in0.0 mm 1.58 in40.1 mm
12:10 PM 15.3°F-9.3°C 3.9°F-15.6°C 60% Calm Calm -- 30.52 in1033.5 mb 0.00 in0.0 mm 0.00 in0.0 mm 1.58 in40.1 mm
12:05 PM 15.3°F-9.3°C 4.3°F-15.4°C 61% Calm Calm -- 30.52 in1033.5 mb 0.00 in0.0 mm 0.00 in0.0 mm 1.58 in40.1 mm
12:00 PM 15.1°F-9.4°C 3.7°F-15.7°C 60% Calm Calm -- 30.53 in1033.9 mb 0.00 in0.0 mm 0.00 in0.0 mm 1.58 in40.1 mm
11:55 AM 14.6°F-9.7°C 3.2°F-16.0°C 60% Calm Calm -- 30.53 in1033.9 mb 0.00 in0.0 mm 0.00 in0.0 mm 1.58 in40.1 mm
11:50 AM 14.5°F-9.7°C 2.8°F-16.2°C 59% Calm Calm -- 30.52 in1033.5 mb 0.00 in0.0 mm 0.00 in0.0 mm 1.58 in40.1 mm
11:45 AM 14.2°F-9.9°C 2.5°F-16.4°C 59% Calm Calm -- 30.53 in1033.9 mb 0.00 in0.0 mm 0.00 in0.0 mm 1.58 in40.1 mm
11:40 AM 14.5°F-9.7°C 2.8°F-16.2°C 59% Calm Calm -- 30.53 in1033.9 mb 0.00 in0.0 mm 0.00 in0.0 mm 1.58 in40.1 mm
11:35 AM 14.4°F-9.8°C 3.0°F-16.1°C 60% Calm Calm -- 30.53 in1033.9 mb 0.00 in0.0 mm 0.00 in0.0 mm 1.58 in40.1 mm
11:30 AM 14.2°F-9.9°C 2.8°F-16.2°C 60% Calm Calm -- 30.53 in1033.9 mb 0.00 in0.0 mm 0.00 in0.0 mm 1.58 in40.1 mm
11:25 AM 14.1°F-9.9°C 3.2°F-16.0°C 61% Calm Calm -- 30.53 in1033.9 mb 0.00 in0.0 mm 0.00 in0.0 mm 1.58 in40.1 mm
11:20 AM 13.6°F-10.2°C 2.3°F-16.5°C 60% Calm Calm -- 30.53 in1033.9 mb 0.00 in0.0 mm 0.00 in0.0 mm 1.58 in40.1 mm
11:15 AM 14.0°F-10.0°C 2.7°F-16.3°C 60% Calm Calm -- 30.53 in1033.9 mb 0.00 in0.0 mm 0.00 in0.0 mm 1.58 in40.1 mm
11:10 AM 13.7°F-10.2°C 2.3°F-16.5°C 60% Calm Calm -- 30.54 in1034.2 mb 0.00 in0.0 mm 0.00 in0.0 mm 1.58 in40.1 mm
11:05 AM 13.5°F-10.3°C 2.1°F-16.6°C 60% Calm Calm -- 30.53 in1033.9 mb 0.00 in0.0 mm 0.00 in0.0 mm 1.58 in40.1 mm
11:00 AM 13.8°F-10.1°C 2.5°F-16.4°C 60% Calm Calm -- 30.53 in1033.9 mb 0.00 in0.0 mm 0.00 in0.0 mm 1.58 in40.1 mm
10:55 AM 14.0°F-10.0°C 2.7°F-16.3°C 60% Calm Calm -- 30.53 in1033.9 mb 0.00 in0.0 mm 0.00 in0.0 mm 1.58 in40.1 mm
10:50 AM 13.3°F-10.4°C 1.6°F-16.9°C 59% Calm Calm -- 30.53 in1033.9 mb 0.00 in0.0 mm 0.00 in0.0 mm 1.58 in40.1 mm
10:45 AM 13.4°F-10.3°C 2.5°F-16.4°C 61% Calm Calm -- 30.52 in1033.5 mb 0.00 in0.0 mm 0.00 in0.0 mm 1.58 in40.1 mm
10:40 AM 12.7°F-10.7°C 1.6°F-16.9°C 60% Calm Calm -- 30.52 in1033.5 mb 0.00 in0.0 mm 0.00 in0.0 mm 1.58 in40.1 mm
10:35 AM 12.9°F-10.6°C 2.1°F-16.6°C 61% Calm Calm -- 30.53 in1033.9 mb 1.58 in40.1 mm 0.00 in0.0 mm 1.58 in40.1 mm
10:30 AM 12.5°F-10.8°C 1.8°F-16.8°C 61% Calm Calm -- 30.53 in1033.9 mb 1.58 in40.1 mm 0.00 in0.0 mm 1.58 in40.1 mm
10:25 AM 12.2°F-11.0°C 1.4°F-17.0°C 61% Calm Calm -- 30.53 in1033.9 mb 1.58 in40.1 mm 0.00 in0.0 mm 1.58 in40.1 mm
10:20 AM 11.3°F-11.5°C 0.9°F-17.3°C 62% Calm Calm -- 30.53 in1033.9 mb 1.58 in40.1 mm 0.00 in0.0 mm 1.58 in40.1 mm
10:15 AM 11.3°F-11.5°C 0.5°F-17.5°C 61% Calm Calm -- 30.53 in1033.9 mb 1.58 in40.1 mm 0.00 in0.0 mm 1.58 in40.1 mm
10:10 AM 11.0°F-11.7°C -0.2°F-17.9°C 60% Calm Calm -- 30.53 in1033.9 mb 1.58 in40.1 mm 0.00 in0.0 mm 1.58 in40.1 mm
10:05 AM 11.2°F-11.6°C 0.0°F-17.8°C 60% Calm Calm -- 30.53 in1033.9 mb 1.58 in40.1 mm 0.00 in0.0 mm 1.58 in40.1 mm
10:00 AM 11.3°F-11.5°C 0.1°F-17.7°C 60% Calm Calm -- 30.52 in1033.5 mb 1.58 in40.1 mm 0.00 in0.0 mm 1.58 in40.1 mm
09:55 AM 11.2°F-11.6°C 0.7°F-17.4°C 62% Calm Calm -- 30.52 in1033.5 mb 1.58 in40.1 mm 0.00 in0.0 mm 1.58 in40.1 mm
09:50 AM 11.0°F-11.7°C -0.2°F-17.9°C 60% Calm Calm -- 30.52 in1033.5 mb 1.58 in40.1 mm 0.00 in0.0 mm 1.58 in40.1 mm
09:45 AM 10.8°F-11.8°C 0.0°F-17.8°C 61% Calm Calm -- 30.52 in1033.5 mb 1.58 in40.1 mm 0.00 in0.0 mm 1.58 in40.1 mm
09:40 AM 10.3°F-12.1°C -0.9°F-18.3°C 60% Calm Calm -- 30.52 in1033.5 mb 1.58 in40.1 mm 0.00 in0.0 mm 1.58 in40.1 mm
09:36 AM 10.2°F-12.1°C -0.9°F-18.3°C 60% Calm Calm -- 30.52 in1033.5 mb 1.58 in40.1 mm 2.63 in66.8 mm 1.58 in40.1 mm